Time;durP1;ratioP1;P1;durP2;ratioP2;P2;SDS_P1;SDS_P2;PMS_P1;PMS_P2;Temp;Humidity;BMP_temperature;BMP_pressure;BME280_temperature;BME280_humidity;BME280_pressure;Samples;Min_cycle;Max_cycle;Signal;HPM_P1;HPM_P2
2022/01/10 00:01:50;;;;;;;20.17;5.23;;;4.40;99.90;;;;;;6211840;23;20578;-52
2022/01/10 00:04:15;;;;;;;10.10;3.80;;;4.40;99.90;;;;;;6209975;23;20186;-52
2022/01/10 00:06:41;;;;;;;24.07;5.23;;;4.40;99.90;;;;;;6212227;23;20362;-52
2022/01/10 00:09:07;;;;;;;14.40;5.17;;;4.40;99.90;;;;;;6212001;23;20209;-52
2022/01/10 00:11:32;;;;;;;15.60;3.70;;;4.40;99.90;;;;;;6212304;23;20185;-52
2022/01/10 00:13:58;;;;;;;20.67;4.75;;;4.40;99.90;;;;;;6184819;23;20377;-52
2022/01/10 00:16:24;;;;;;;16.97;3.77;;;4.40;99.90;;;;;;6212108;23;20186;-52
2022/01/10 00:18:49;;;;;;;10.50;4.10;;;4.30;99.90;;;;;;6212395;23;20325;-52
2022/01/10 00:21:15;;;;;;;22.13;4.37;;;4.30;99.90;;;;;;6212308;23;20374;-52
2022/01/10 00:23:41;;;;;;;6.80;3.27;;;4.30;99.90;;;;;;6212130;23;20562;-51
2022/01/10 00:26:07;;;;;;;14.20;4.10;;;4.30;99.90;;;;;;6212217;23;20380;-52
2022/01/10 00:28:33;;;;;;;19.53;3.73;;;4.30;99.90;;;;;;6211882;23;20389;-52
2022/01/10 00:30:58;;;;;;;12.43;3.90;;;4.30;99.90;;;;;;6212133;23;20379;-52
2022/01/10 00:33:24;;;;;;;13.33;4.10;;;4.20;99.90;;;;;;6213424;23;20151;-52
2022/01/10 00:35:49;;;;;;;16.43;4.13;;;4.20;99.90;;;;;;6212077;23;20147;-53
2022/01/10 00:38:15;;;;;;;19.53;4.50;;;4.20;99.90;;;;;;6214206;23;20162;-51
2022/01/10 00:40:42;;;;;;;10.30;3.70;;;4.20;99.90;;;;;;6214796;23;20608;-52
2022/01/10 00:43:10;;;;;;;16.27;3.90;;;4.20;99.90;;;;;;6214147;23;20174;-52
2022/01/10 00:45:36;;;;;;;8.57;3.73;;;4.20;99.90;;;;;;6214922;23;20664;-52
2022/01/10 00:48:02;;;;;;;19.70;4.53;;;4.20;99.90;;;;;;6187587;23;20435;-52
2022/01/10 00:50:29;;;;;;;18.73;4.33;;;4.20;99.90;;;;;;6213946;23;20484;-51
2022/01/10 00:52:55;;;;;;;13.53;3.90;;;4.20;99.90;;;;;;6223638;23;20196;-60
2022/01/10 00:55:21;;;;;;;13.87;4.07;;;4.20;99.90;;;;;;6241331;23;20750;-60
2022/01/10 00:57:47;;;;;;;14.47;4.13;;;4.20;99.90;;;;;;6244399;23;20429;-60
2022/01/10 01:00:14;;;;;;;13.60;4.20;;;4.20;99.90;;;;;;6244318;23;20603;-60
2022/01/10 01:02:40;;;;;;;16.73;4.03;;;4.10;99.90;;;;;;6244096;23;20307;-60
2022/01/10 01:05:10;;;;;;;16.73;4.93;;;4.10;99.90;;;;;;6244095;23;20769;-60
2022/01/10 01:07:37;;;;;;;14.20;3.90;;;4.10;99.90;;;;;;6243980;23;20154;-60
2022/01/10 01:12:56;;;;;;;16.40;4.10;;;4.10;99.90;;;;;;6244346;23;20364;-60
2022/01/10 01:15:30;;;;;;;11.97;4.37;;;4.10;99.90;;;;;;6244579;23;20368;-60
2022/01/10 01:25:53;;;;;;;9.73;4.50;;;4.20;99.90;;;;;;6244122;23;20363;-62
2022/01/10 01:28:19;;;;;;;17.97;5.43;;;4.40;99.90;;;;;;6243854;23;20400;-60
2022/01/10 01:30:44;;;;;;;15.97;5.20;;;4.30;99.90;;;;;;6244173;23;20185;-62
2022/01/10 01:33:13;;;;;;;15.20;4.70;;;4.20;99.90;;;;;;6244000;23;20473;-60
2022/01/10 01:35:39;;;;;;;16.10;5.27;;;4.20;99.90;;;;;;6244723;23;20196;-60
2022/01/10 01:38:05;;;;;;;13.73;4.80;;;4.30;99.90;;;;;;6243973;23;20384;-60
2022/01/10 01:40:33;;;;;;;18.87;5.37;;;4.30;99.90;;;;;;6244332;23;20195;-52
2022/01/10 01:42:59;;;;;;;14.23;4.97;;;4.20;99.90;;;;;;6243869;23;20423;-51
2022/01/10 01:45:48;;;;;;;16.53;5.90;;;4.20;99.90;;;;;;6243551;23;20380;-52
2022/01/10 01:48:15;;;;;;;14.20;5.50;;;4.30;99.90;;;;;;6243973;23;20223;-52
2022/01/10 01:50:40;;;;;;;12.47;5.27;;;4.20;99.90;;;;;;6243712;23;20448;-51
2022/01/10 01:53:08;;;;;;;8.90;5.20;;;4.20;99.90;;;;;;6244093;23;20856;-52
2022/01/10 01:55:34;;;;;;;20.43;5.97;;;4.20;99.90;;;;;;6243675;23;20154;-52
2022/01/10 01:58:00;;;;;;;24.50;6.20;;;4.20;99.90;;;;;;6243683;23;20372;-51
2022/01/10 02:00:26;;;;;;;16.60;5.67;;;4.20;99.90;;;;;;6243672;23;20405;-51
2022/01/10 02:02:53;;;;;;;18.33;6.00;;;4.20;99.90;;;;;;6243471;23;20431;-51
2022/01/10 02:05:19;;;;;;;16.60;5.53;;;4.20;99.90;;;;;;6240616;23;20377;-51
2022/01/10 02:07:45;;;;;;;14.97;5.87;;;4.20;99.90;;;;;;6243566;23;20361;-51
2022/01/10 02:10:11;;;;;;;30.47;7.00;;;4.20;99.90;;;;;;6242918;23;20153;-51
2022/01/10 02:12:37;;;;;;;22.53;6.07;;;4.20;99.90;;;;;;6242962;23;20377;-51
2022/01/10 02:15:03;;;;;;;14.43;6.00;;;4.10;99.90;;;;;;6241564;23;20376;-52
2022/01/10 02:17:37;;;;;;;22.80;7.17;;;4.10;99.90;;;;;;6242120;23;20142;-52
2022/01/10 02:20:07;;;;;;;14.77;6.30;;;4.20;99.90;;;;;;6241771;23;20372;-52
2022/01/10 02:22:33;;;;;;;17.23;6.80;;;4.10;99.90;;;;;;6242779;23;20491;-51
2022/01/10 02:24:59;;;;;;;22.93;7.27;;;4.10;99.90;;;;;;6242516;23;20388;-52
2022/01/10 02:27:25;;;;;;;19.50;6.77;;;4.20;99.90;;;;;;6242113;23;20360;-60
2022/01/10 02:29:51;;;;;;;20.47;6.93;;;4.10;99.90;;;;;;6241189;23;20158;-59
2022/01/10 02:32:19;;;;;;;14.97;7.00;;;4.20;99.90;;;;;;6242241;23;20643;-60
2022/01/10 02:34:45;;;;;;;25.97;7.37;;;4.20;99.90;;;;;;6242661;23;20384;-60
2022/01/10 02:37:10;;;;;;;28.20;8.03;;;4.10;99.90;;;;;;6215901;23;20377;-60
2022/01/10 02:39:36;;;;;;;36.10;7.37;;;4.10;99.90;;;;;;6241748;23;20154;-60
2022/01/10 02:42:03;;;;;;;27.97;7.60;;;4.10;99.90;;;;;;6241574;23;20519;-60
2022/01/10 02:44:29;;;;;;;27.07;7.97;;;4.20;99.90;;;;;;6242136;23;20424;-60
2022/01/10 02:46:55;;;;;;;30.97;7.53;;;4.10;99.90;;;;;;6242309;23;20528;-61
2022/01/10 02:49:26;;;;;;;22.50;8.50;;;4.20;99.90;;;;;;6241667;23;20565;-61
2022/01/10 02:51:53;;;;;;;17.00;7.73;;;4.10;99.90;;;;;;6241814;23;20166;-60
2022/01/10 02:54:21;;;;;;;18.67;7.70;;;4.10;99.90;;;;;;6241615;23;20436;-62
2022/01/10 02:56:49;;;;;;;22.73;8.37;;;4.10;99.90;;;;;;6242374;23;20380;-61
2022/01/10 02:59:15;;;;;;;23.27;8.73;;;4.10;99.90;;;;;;6242856;23;20398;-61
2022/01/10 03:01:41;;;;;;;27.23;8.13;;;4.10;99.90;;;;;;6242634;23;20369;-60
2022/01/10 03:04:06;;;;;;;23.73;8.20;;;4.10;99.90;;;;;;6243095;23;20427;-61
2022/01/10 03:06:32;;;;;;;26.10;7.77;;;4.20;99.90;;;;;;6243058;23;20154;-60
2022/01/10 03:09:04;;;;;;;18.43;7.30;;;4.20;99.90;;;;;;6242985;23;20142;-61
2022/01/10 03:11:30;;;;;;;24.60;8.63;;;4.20;99.90;;;;;;6243008;23;20364;-60
2022/01/10 03:13:56;;;;;;;16.23;7.97;;;4.20;99.90;;;;;;6243060;23;20702;-61
2022/01/10 03:16:21;;;;;;;14.60;7.43;;;4.20;99.90;;;;;;6242524;23;20184;-61
2022/01/10 03:18:47;;;;;;;26.50;7.20;;;4.20;99.90;;;;;;6242967;23;20248;-60
2022/01/10 03:21:12;;;;;;;20.50;7.10;;;4.20;99.90;;;;;;6242860;23;20150;-61
2022/01/10 03:23:38;;;;;;;21.60;7.20;;;4.20;99.90;;;;;;6242679;23;20178;-60
2022/01/10 03:26:03;;;;;;;17.90;7.87;;;4.20;99.90;;;;;;6240640;23;20208;-60
2022/01/10 03:28:29;;;;;;;19.90;7.57;;;4.20;99.90;;;;;;6242623;23;20478;-60
2022/01/10 03:30:54;;;;;;;20.30;7.87;;;4.40;99.90;;;;;;6242643;23;20240;-60
2022/01/10 03:33:20;;;;;;;16.60;6.57;;;4.40;99.90;;;;;;6242854;23;20229;-61
2022/01/10 03:35:45;;;;;;;25.60;7.07;;;4.40;99.90;;;;;;6242629;23;20237;-57
2022/01/10 03:38:11;;;;;;;21.47;7.07;;;4.40;99.90;;;;;;6242893;23;20153;-60
2022/01/10 03:40:37;;;;;;;22.83;7.83;;;4.40;99.90;;;;;;6242930;23;20328;-61
2022/01/10 03:43:03;;;;;;;24.67;7.20;;;4.40;99.90;;;;;;6243513;23;20572;-60
2022/01/10 03:45:28;;;;;;;21.00;8.67;;;4.30;99.90;;;;;;6243343;23;20560;-60
2022/01/10 03:47:54;;;;;;;26.53;7.57;;;4.20;99.90;;;;;;6242755;23;20372;-60
2022/01/10 03:50:19;;;;;;;20.90;7.33;;;4.20;99.90;;;;;;6215838;23;20568;-60
2022/01/10 03:52:45;;;;;;;13.40;7.10;;;4.20;99.90;;;;;;6242520;23;20185;-62
2022/01/10 03:55:11;;;;;;;22.83;7.37;;;4.30;99.90;;;;;;6239858;23;20230;-60
2022/01/10 03:57:36;;;;;;;19.57;7.30;;;4.30;99.90;;;;;;6242885;23;20146;-61
2022/01/10 04:00:05;;;;;;;27.20;8.40;;;4.30;99.90;;;;;;6242470;23;20153;-61
2022/01/10 04:02:32;;;;;;;20.90;8.23;;;4.30;99.90;;;;;;6242434;23;20215;-60
2022/01/10 04:04:57;;;;;;;27.43;9.63;;;4.30;99.90;;;;;;6242773;23;20367;-60
2022/01/10 04:07:23;;;;;;;21.97;11.03;;;4.30;99.90;;;;;;6242756;23;20695;-61
2022/01/10 04:09:48;;;;;;;31.73;12.70;;;4.30;99.90;;;;;;6245932;23;20239;-60
2022/01/10 04:12:14;;;;;;;27.43;12.73;;;4.30;99.90;;;;;;6246317;23;20145;-60
2022/01/10 04:14:39;;;;;;;30.03;11.23;;;4.20;99.90;;;;;;6246027;23;20153;-60
2022/01/10 04:17:05;;;;;;;35.37;11.83;;;4.10;99.90;;;;;;6245973;23;20236;-61
2022/01/10 04:19:30;;;;;;;53.50;13.27;;;4.00;99.90;;;;;;6245801;23;20180;-60
2022/01/10 04:21:56;;;;;;;41.07;13.07;;;4.00;99.90;;;;;;6245915;23;20472;-60
2022/01/10 04:24:21;;;;;;;30.47;10.33;;;3.90;99.90;;;;;;6246123;23;20181;-60
2022/01/10 04:26:47;;;;;;;40.57;11.37;;;3.90;99.90;;;;;;6246419;23;20614;-60
2022/01/10 04:29:12;;;;;;;31.87;11.50;;;3.90;99.90;;;;;;6245767;23;20472;-60
2022/01/10 04:31:38;;;;;;;23.03;10.43;;;3.80;99.90;;;;;;6245644;23;20161;-60
2022/01/10 04:34:04;;;;;;;24.93;10.10;;;3.80;99.90;;;;;;6246379;23;20196;-60
2022/01/10 04:36:29;;;;;;;20.40;8.83;;;3.80;99.90;;;;;;6245972;23;20146;-60
2022/01/10 04:38:55;;;;;;;18.10;7.60;;;3.70;99.90;;;;;;6245752;23;20158;-61
2022/01/10 04:41:20;;;;;;;22.40;8.97;;;3.70;99.90;;;;;;6245826;23;20587;-60
2022/01/10 04:43:46;;;;;;;17.30;7.80;;;3.70;99.90;;;;;;6245313;23;20169;-60
2022/01/10 04:46:11;;;;;;;15.53;8.30;;;3.60;99.90;;;;;;6245842;23;20157;-60
2022/01/10 04:48:37;;;;;;;15.13;8.23;;;3.60;99.90;;;;;;6245759;23;20153;-62
2022/01/10 04:51:13;;;;;;;19.33;7.90;;;3.60;99.90;;;;;;6245885;23;20371;-60
2022/01/10 04:53:40;;;;;;;14.93;8.07;;;3.60;99.90;;;;;;6245733;23;20193;-60
2022/01/10 04:56:06;;;;;;;18.03;8.60;;;3.50;99.90;;;;;;6218721;23;20397;-60
2022/01/10 04:58:32;;;;;;;14.03;8.77;;;3.50;99.90;;;;;;6245381;23;20365;-61
2022/01/10 05:00:58;;;;;;;19.60;10.23;;;3.50;99.90;;;;;;6245722;23;20654;-60
2022/01/10 05:03:23;;;;;;;18.57;10.60;;;3.50;99.90;;;;;;6245528;23;20643;-60
2022/01/10 05:05:53;;;;;;;17.50;10.63;;;3.50;99.90;;;;;;6245919;23;20376;-60
2022/01/10 05:08:19;;;;;;;18.50;10.67;;;3.50;99.90;;;;;;6245816;23;20232;-60
2022/01/10 05:10:45;;;;;;;15.93;10.40;;;3.50;99.90;;;;;;6245629;23;20418;-62
2022/01/10 05:13:10;;;;;;;18.90;10.43;;;3.50;99.90;;;;;;6245796;23;20388;-60
2022/01/10 05:15:36;;;;;;;18.40;10.30;;;3.50;99.90;;;;;;6243044;23;20150;-60
2022/01/10 05:18:02;;;;;;;16.43;10.53;;;3.50;99.90;;;;;;6245942;23;20572;-60
2022/01/10 05:20:27;;;;;;;22.27;11.13;;;3.50;99.90;;;;;;6244006;23;20430;-59
2022/01/10 05:22:53;;;;;;;22.90;10.30;;;3.50;99.90;;;;;;6244121;23;20506;-61
2022/01/10 05:25:18;;;;;;;17.60;10.50;;;3.50;99.90;;;;;;6244080;23;20158;-60
2022/01/10 05:27:44;;;;;;;16.97;10.83;;;3.50;99.90;;;;;;6243800;23;20157;-60
2022/01/10 05:30:10;;;;;;;15.97;9.80;;;3.50;99.90;;;;;;6217473;23;20158;-61
2022/01/10 05:32:36;;;;;;;19.50;11.70;;;3.50;99.90;;;;;;6244292;23;20138;-60
2022/01/10 05:35:01;;;;;;;16.47;10.23;;;3.50;99.90;;;;;;6243887;23;20840;-61
2022/01/10 05:37:27;;;;;;;19.20;11.27;;;3.50;99.90;;;;;;6243983;23;20174;-61
2022/01/10 05:39:52;;;;;;;16.10;10.40;;;3.50;99.90;;;;;;6217136;23;20207;-61
2022/01/10 05:42:19;;;;;;;17.93;9.97;;;3.50;99.90;;;;;;6243789;23;20154;-60
2022/01/10 05:44:45;;;;;;;17.97;10.40;;;3.50;99.90;;;;;;6243834;23;20170;-60
2022/01/10 05:47:10;;;;;;;17.63;10.87;;;3.50;99.90;;;;;;6244302;23;20446;-60
2022/01/10 05:49:37;;;;;;;16.60;10.30;;;3.50;99.90;;;;;;6243748;23;20146;-60
2022/01/10 05:52:04;;;;;;;20.03;10.10;;;3.50;99.90;;;;;;6244013;23;20233;-60
2022/01/10 05:54:29;;;;;;;18.13;11.60;;;3.50;99.90;;;;;;6243464;23;20445;-60
2022/01/10 05:56:55;;;;;;;16.10;10.90;;;3.50;99.90;;;;;;6244024;23;20861;-60
2022/01/10 05:59:21;;;;;;;14.93;10.40;;;3.50;99.90;;;;;;6216871;23;20189;-60
2022/01/10 06:01:48;;;;;;;17.40;11.33;;;3.50;99.90;;;;;;6243519;23;20138;-60
2022/01/10 06:04:13;;;;;;;18.77;10.60;;;3.50;99.90;;;;;;6243548;23;20486;-60
2022/01/10 06:06:39;;;;;;;18.30;10.40;;;3.50;99.90;;;;;;6243533;23;20369;-60
2022/01/10 06:09:04;;;;;;;17.87;11.40;;;3.40;99.90;;;;;;6216884;23;20158;-60
2022/01/10 06:11:30;;;;;;;17.17;11.27;;;3.50;99.90;;;;;;6244583;23;20595;-60
2022/01/10 06:13:55;;;;;;;16.80;11.00;;;3.50;99.90;;;;;;6244338;23;20142;-60
2022/01/10 06:16:21;;;;;;;17.70;10.43;;;3.50;99.90;;;;;;6244500;23;20142;-60
2022/01/10 06:18:46;;;;;;;20.80;12.10;;;3.50;99.90;;;;;;6244866;23;20185;-60
2022/01/10 06:21:12;;;;;;;20.60;12.30;;;3.50;99.90;;;;;;6217395;23;20172;-60
2022/01/10 06:23:37;;;;;;;17.93;11.40;;;3.40;99.90;;;;;;6244061;23;20189;-60
2022/01/10 06:26:03;;;;;;;20.30;11.53;;;3.40;99.90;;;;;;6244259;23;20225;-61
2022/01/10 06:28:29;;;;;;;21.70;14.00;;;3.40;99.90;;;;;;6217287;23;20161;-60
2022/01/10 06:30:54;;;;;;;19.77;12.17;;;3.40;99.90;;;;;;6244057;23;20158;-63
2022/01/10 06:33:20;;;;;;;20.83;12.53;;;3.40;99.90;;;;;;6244431;23;20579;-51
2022/01/10 06:35:45;;;;;;;21.60;12.70;;;3.40;99.90;;;;;;6244798;23;20161;-52
2022/01/10 06:38:11;;;;;;;19.60;12.53;;;3.40;99.90;;;;;;6243874;23;20153;-53
2022/01/10 06:40:36;;;;;;;20.63;12.43;;;3.40;99.90;;;;;;6244289;23;20221;-52
2022/01/10 06:43:04;;;;;;;21.23;12.20;;;3.40;99.90;;;;;;6217970;23;20185;-51
2022/01/10 06:45:29;;;;;;;22.10;13.40;;;3.40;99.90;;;;;;6217678;23;20158;-52
2022/01/10 06:47:55;;;;;;;22.40;14.07;;;3.40;99.90;;;;;;6244363;23;20681;-52
2022/01/10 06:50:21;;;;;;;25.60;12.80;;;3.40;99.90;;;;;;6244262;23;20594;-54
2022/01/10 06:52:46;;;;;;;26.83;14.43;;;3.40;99.90;;;;;;6243567;23;20199;-52
2022/01/10 06:55:12;;;;;;;23.93;14.40;;;3.40;99.90;;;;;;6244270;23;20145;-52
2022/01/10 06:57:37;;;;;;;22.43;13.50;;;3.40;99.90;;;;;;6244175;23;20142;-52
2022/01/10 07:00:05;;;;;;;22.17;12.90;;;3.40;99.90;;;;;;6217159;23;20189;-52
2022/01/10 07:02:31;;;;;;;22.90;13.10;;;3.40;99.90;;;;;;6244101;23;20173;-52
2022/01/10 07:04:57;;;;;;;21.93;13.20;;;3.40;99.90;;;;;;6241724;23;20440;-52
2022/01/10 07:07:22;;;;;;;24.77;14.17;;;3.40;99.90;;;;;;6243631;23;20150;-52
2022/01/10 07:09:48;;;;;;;27.10;13.17;;;3.30;99.90;;;;;;6243959;23;20569;-51
2022/01/10 07:12:13;;;;;;;25.40;14.80;;;3.40;99.90;;;;;;6243610;23;20191;-52
2022/01/10 07:14:39;;;;;;;25.50;14.80;;;3.40;99.90;;;;;;6244199;23;20189;-52
2022/01/10 07:17:05;;;;;;;25.60;14.80;;;3.40;99.90;;;;;;6243882;23;20142;-52
2022/01/10 07:19:31;;;;;;;25.73;15.00;;;3.40;99.90;;;;;;6243320;23;20392;-53
2022/01/10 07:21:56;;;;;;;26.27;14.87;;;3.40;99.90;;;;;;6243463;23;20415;-52
2022/01/10 07:24:22;;;;;;;23.53;14.63;;;3.40;99.90;;;;;;6243765;23;20252;-52
2022/01/10 07:26:48;;;;;;;25.87;15.53;;;3.30;99.90;;;;;;6243678;23;20182;-52
2022/01/10 07:29:13;;;;;;;25.43;15.23;;;3.30;99.90;;;;;;6243565;23;20438;-52
2022/01/10 07:31:40;;;;;;;25.67;15.00;;;3.40;99.90;;;;;;6243550;23;20142;-52
2022/01/10 07:34:07;;;;;;;24.73;14.50;;;3.40;99.90;;;;;;6217352;23;20175;-52
2022/01/10 07:36:32;;;;;;;26.10;15.57;;;3.30;99.90;;;;;;6244142;23;20380;-52
2022/01/10 07:38:58;;;;;;;24.50;14.87;;;3.30;99.90;;;;;;6243804;23;20377;-52
2022/01/10 07:41:24;;;;;;;28.70;15.40;;;3.30;99.90;;;;;;6244137;23;20161;-52
2022/01/10 07:43:50;;;;;;;23.77;14.00;;;3.30;99.90;;;;;;6243358;23;20656;-52
2022/01/10 07:46:15;;;;;;;29.03;15.50;;;3.30;99.90;;;;;;6243808;23;20173;-52
2022/01/10 07:48:44;;;;;;;25.50;14.83;;;3.40;99.90;;;;;;6243935;23;20369;-52
2022/01/10 07:51:11;;;;;;;27.10;15.10;;;3.40;99.90;;;;;;6244281;23;20158;-52
2022/01/10 07:53:38;;;;;;;25.93;15.23;;;3.30;99.90;;;;;;6243219;23;20492;-52
2022/01/10 07:56:05;;;;;;;29.50;16.23;;;3.30;99.90;;;;;;6243629;23;20404;-53
2022/01/10 07:58:30;;;;;;;29.63;16.90;;;3.30;99.90;;;;;;6243044;23;20701;-52
2022/01/10 08:00:56;;;;;;;30.33;16.60;;;3.30;99.90;;;;;;6243525;23;20365;-52
2022/01/10 08:03:22;;;;;;;34.37;16.97;;;3.30;99.90;;;;;;6243392;23;20473;-53
2022/01/10 08:05:47;;;;;;;32.70;17.40;;;3.40;99.90;;;;;;6216248;23;20164;-52
2022/01/10 08:08:13;;;;;;;30.83;17.83;;;3.30;99.90;;;;;;6242803;23;20168;-52
2022/01/10 08:10:38;;;;;;;32.07;18.10;;;3.40;99.90;;;;;;6242982;23;20152;-52
2022/01/10 08:13:04;;;;;;;32.57;16.90;;;3.40;99.90;;;;;;6216082;23;20161;-51
2022/01/10 08:15:30;;;;;;;32.03;16.93;;;3.40;99.90;;;;;;6242818;23;20165;-51
2022/01/10 08:17:56;;;;;;;32.43;17.37;;;3.40;99.90;;;;;;6243312;23;20150;-52
2022/01/10 08:20:22;;;;;;;30.60;16.40;;;3.40;99.90;;;;;;6242884;23;20141;-52
2022/01/10 08:22:48;;;;;;;31.00;18.10;;;3.40;99.90;;;;;;6243007;23;20386;-52
2022/01/10 08:25:13;;;;;;;29.50;17.27;;;3.40;99.90;;;;;;6242987;23;20624;-52
2022/01/10 08:27:39;;;;;;;38.27;18.50;;;3.40;99.90;;;;;;6243036;23;20548;-52
2022/01/10 08:30:05;;;;;;;27.77;16.57;;;3.50;99.90;;;;;;6243049;23;20165;-52
2022/01/10 08:32:31;;;;;;;31.10;17.53;;;3.50;99.90;;;;;;6243335;23;20142;-52
2022/01/10 08:34:57;;;;;;;34.20;18.40;;;3.50;99.90;;;;;;6216207;23;20388;-51
2022/01/10 08:37:24;;;;;;;30.67;18.07;;;3.50;99.90;;;;;;6240285;23;20158;-50
2022/01/10 08:39:51;;;;;;;28.90;16.80;;;3.60;99.90;;;;;;6241089;23;20150;-51
2022/01/10 08:42:19;;;;;;;34.27;18.60;;;3.60;99.90;;;;;;6242898;23;20434;-51
2022/01/10 08:44:44;;;;;;;29.67;16.60;;;3.60;99.90;;;;;;6242957;23;20521;-51
2022/01/10 08:47:10;;;;;;;32.37;17.73;;;3.60;99.90;;;;;;6242402;23;20361;-51
2022/01/10 08:49:35;;;;;;;34.67;19.33;;;3.60;99.90;;;;;;6241254;23;20463;-52
2022/01/10 08:52:01;;;;;;;34.33;17.13;;;3.60;99.90;;;;;;6239257;23;20154;-51
2022/01/10 08:54:26;;;;;;;39.47;20.53;;;3.70;99.90;;;;;;6241948;23;20507;-51
2022/01/10 08:56:53;;;;;;;38.47;19.40;;;3.70;99.90;;;;;;6245137;23;20638;-51
2022/01/10 08:59:19;;;;;;;35.17;20.00;;;3.70;99.90;;;;;;6244673;23;20154;-52
2022/01/10 09:01:46;;;;;;;44.73;21.60;;;3.70;99.90;;;;;;6244278;23;20373;-50
2022/01/10 09:04:16;;;;;;;39.30;20.40;;;3.70;99.90;;;;;;6244640;23;20427;-50
2022/01/10 09:06:55;;;;;;;38.87;20.77;;;3.80;99.90;;;;;;6245105;23;20375;-50
2022/01/10 09:09:21;;;;;;;39.50;20.40;;;3.80;99.90;;;;;;6245093;23;20469;-50
2022/01/10 09:11:47;;;;;;;39.30;19.80;;;3.90;99.90;;;;;;6244883;23;20384;-50
2022/01/10 09:14:13;;;;;;;40.47;20.53;;;3.90;99.90;;;;;;6245441;23;20372;-54
2022/01/10 09:16:40;;;;;;;36.30;20.17;;;4.00;99.90;;;;;;6218150;23;20384;-52
2022/01/10 09:19:05;;;;;;;39.10;20.63;;;4.00;99.90;;;;;;6244584;23;20388;-50
2022/01/10 09:21:31;;;;;;;42.67;21.23;;;4.00;99.90;;;;;;6245051;23;20679;-51
2022/01/10 09:23:57;;;;;;;36.80;20.03;;;4.10;99.90;;;;;;6245000;23;20958;-51
2022/01/10 09:26:24;;;;;;;41.93;20.87;;;4.10;99.90;;;;;;6244927;23;20165;-51
2022/01/10 09:28:50;;;;;;;40.80;20.80;;;4.20;99.90;;;;;;6244731;23;20488;-51
2022/01/10 09:31:16;;;;;;;39.43;20.10;;;4.30;99.90;;;;;;6244853;23;20361;-52
2022/01/10 09:33:42;;;;;;;42.63;21.60;;;4.40;99.90;;;;;;6217733;23;20454;-52
2022/01/10 09:36:08;;;;;;;42.40;20.97;;;4.40;99.90;;;;;;6244561;23;20368;-51
2022/01/10 09:38:34;;;;;;;41.07;21.00;;;4.40;99.90;;;;;;6244587;23;20375;-51
2022/01/10 09:41:00;;;;;;;48.43;22.60;;;4.40;99.90;;;;;;6244514;23;20389;-53
2022/01/10 09:43:26;;;;;;;44.47;22.40;;;4.50;99.90;;;;;;6244663;23;20424;-51
2022/01/10 09:45:53;;;;;;;42.30;22.30;;;4.50;99.90;;;;;;6244547;23;20138;-52
2022/01/10 09:48:19;;;;;;;42.33;22.63;;;4.50;99.90;;;;;;6244558;23;20162;-52
2022/01/10 09:50:45;;;;;;;46.93;21.83;;;4.40;99.90;;;;;;6244756;23;20380;-51
2022/01/10 09:53:12;;;;;;;45.97;22.80;;;4.40;99.90;;;;;;6244712;23;20862;-52
2022/01/10 09:55:37;;;;;;;46.50;23.90;;;4.50;99.90;;;;;;6244461;23;20508;-52
2022/01/10 09:58:03;;;;;;;41.87;21.87;;;4.50;99.90;;;;;;6244687;23;20364;-54
2022/01/10 10:00:30;;;;;;;49.10;23.57;;;4.50;99.90;;;;;;6244375;23;20150;-52
2022/01/10 10:02:56;;;;;;;48.70;24.17;;;4.50;99.90;;;;;;6244351;23;20384;-52
2022/01/10 10:05:21;;;;;;;47.90;22.93;;;4.50;99.90;;;;;;6244442;23;20368;-53
2022/01/10 10:07:48;;;;;;;47.70;23.53;;;4.60;99.90;;;;;;6245450;23;20166;-56
2022/01/10 10:10:14;;;;;;;50.70;24.10;;;4.60;99.90;;;;;;6245434;23;20313;-52
2022/01/10 10:12:42;;;;;;;54.77;25.17;;;4.50;99.90;;;;;;6244693;23;20357;-53
2022/01/10 10:15:11;;;;;;;53.20;24.73;;;4.60;99.90;;;;;;6244726;23;20795;-52
2022/01/10 10:17:38;;;;;;;52.73;23.70;;;4.60;99.90;;;;;;6244354;23;20381;-53
2022/01/10 10:20:23;;;;;;;51.20;24.27;;;4.70;99.90;;;;;;6244547;23;20365;-52
2022/01/10 10:22:51;;;;;;;47.23;22.40;;;4.80;99.90;;;;;;6244399;23;20384;-53
2022/01/10 10:25:17;;;;;;;51.40;23.50;;;4.90;99.90;;;;;;6244172;23;20392;-52
2022/01/10 10:27:45;;;;;;;50.40;23.83;;;5.00;99.90;;;;;;6244460;23;20369;-53
2022/01/10 10:30:28;;;;;;;49.53;22.87;;;5.10;99.90;;;;;;6242861;23;20377;-52
2022/01/10 10:33:18;;;;;;;47.63;23.10;;;5.20;99.90;;;;;;6243833;23;21093;-53
2022/01/10 10:35:53;;;;;;;49.53;23.77;;;5.30;99.90;;;;;;6244271;23;20369;-52
2022/01/10 10:38:18;;;;;;;50.80;22.77;;;5.30;99.90;;;;;;6243205;23;20368;-52
2022/01/10 10:40:45;;;;;;;44.97;22.57;;;5.30;99.90;;;;;;6243235;23;20828;-52
2022/01/10 10:43:11;;;;;;;45.57;22.10;;;5.30;99.90;;;;;;6243530;23;20169;-53
2022/01/10 10:45:38;;;;;;;40.83;21.27;;;5.20;99.90;;;;;;6242009;23;20368;-52
2022/01/10 10:48:07;;;;;;;47.93;21.83;;;5.20;99.90;;;;;;6243747;23;20839;-52
2022/01/10 10:50:41;;;;;;;48.27;22.50;;;5.10;99.90;;;;;;6242613;23;20357;-52
2022/01/10 10:53:09;;;;;;;43.13;20.07;;;5.10;99.90;;;;;;6242235;23;20481;-52
2022/01/10 10:55:41;;;;;;;43.27;22.10;;;5.10;99.90;;;;;;6216450;23;20472;-61
2022/01/10 10:58:10;;;;;;;46.40;22.27;;;5.10;99.90;;;;;;6242943;23;20372;-60
2022/01/10 11:00:36;;;;;;;48.07;22.87;;;5.10;99.90;;;;;;6242343;23;20432;-60
2022/01/10 11:03:03;;;;;;;45.47;22.53;;;5.20;99.90;;;;;;6242324;23;20424;-51
2022/01/10 11:05:29;;;;;;;40.10;20.97;;;5.20;99.90;;;;;;6241657;23;20369;-52
2022/01/10 11:07:55;;;;;;;49.43;23.00;;;5.20;99.90;;;;;;6215424;23;20385;-52
2022/01/10 11:10:23;;;;;;;43.97;21.50;;;5.10;99.90;;;;;;6243048;23;21147;-51
2022/01/10 11:12:54;;;;;;;43.97;21.83;;;5.10;99.90;;;;;;6242605;23;20774;-52
2022/01/10 11:15:20;;;;;;;47.13;21.73;;;5.10;99.90;;;;;;6241895;23;20379;-51
2022/01/10 11:17:45;;;;;;;44.33;22.27;;;5.20;99.90;;;;;;6242830;23;20380;-52
2022/01/10 11:20:18;;;;;;;44.50;21.00;;;5.20;99.90;;;;;;6243068;23;20377;-52
2022/01/10 11:22:55;;;;;;;51.87;23.10;;;5.20;99.90;;;;;;6242070;23;20212;-52
2022/01/10 11:25:29;;;;;;;45.00;21.33;;;5.20;99.90;;;;;;6242264;23;20369;-52
2022/01/10 11:28:00;;;;;;;46.33;22.20;;;5.20;99.90;;;;;;6242677;23;20430;-53
2022/01/10 11:30:36;;;;;;;48.13;22.37;;;5.30;99.90;;;;;;6242454;23;20418;-52
2022/01/10 11:33:08;;;;;;;45.37;20.00;;;5.40;99.90;;;;;;6243450;23;20396;-52
2022/01/10 11:35:35;;;;;;;47.23;23.00;;;5.40;98.50;;;;;;6243687;23;20365;-52
2022/01/10 11:38:19;;;;;;;44.67;21.50;;;5.40;42.60;;;;;;6243585;23;20429;-52
2022/01/10 11:40:50;;;;;;;43.07;21.27;;;5.40;62.50;;;;;;6243999;23;20379;-52
2022/01/10 11:43:33;;;;;;;47.93;22.27;;;5.40;62.10;;;;;;6243580;23;20886;-52
2022/01/10 11:46:19;;;;;;;47.00;22.93;;;5.40;62.10;;;;;;6217069;23;20393;-53
2022/01/10 11:48:59;;;;;;;46.37;23.43;;;5.30;49.10;;;;;;6243226;23;20365;-52
2022/01/10 11:51:26;;;;;;;41.33;20.73;;;5.40;76.20;;;;;;6243171;23;20371;-52
2022/01/10 11:54:09;;;;;;;38.23;20.07;;;5.50;99.90;;;;;;6215792;23;20440;-53
2022/01/10 11:56:36;;;;;;;49.73;22.87;;;5.50;95.10;;;;;;6243979;23;20381;-52
2022/01/10 11:59:11;;;;;;;49.10;25.20;;;5.60;76.90;;;;;;6242981;23;20384;-52
2022/01/10 12:01:51;;;;;;;50.33;25.33;;;5.60;32.80;;;;;;6243456;23;20369;-53
2022/01/10 12:04:18;;;;;;;54.37;24.20;;;5.60;23.10;;;;;;6243001;23;20447;-54
2022/01/10 12:06:44;;;;;;;51.20;25.00;;;5.60;33.30;;;;;;6242713;23;20368;-53
2022/01/10 12:09:10;;;;;;;49.10;24.00;;;5.60;42.10;;;;;;6242927;23;20377;-53
2022/01/10 12:11:38;;;;;;;44.43;22.67;;;5.60;41.50;;;;;;6216659;23;21149;-53
2022/01/10 12:14:06;;;;;;;46.80;22.43;;;5.60;30.40;;;;;;6243028;23;20372;-53
2022/01/10 12:16:32;;;;;;;50.13;23.47;;;5.60;31.80;;;;;;6243096;23;20418;-53
2022/01/10 12:18:58;;;;;;;48.63;22.80;;;5.60;20.00;;;;;;6243013;23;20408;-53
2022/01/10 12:21:24;;;;;;;45.90;22.60;;;5.60;14.50;;;;;;6243057;23;20375;-52
2022/01/10 12:23:52;;;;;;;43.97;21.20;;;5.50;1.00;;;;;;6243166;23;20170;-53
2022/01/10 12:26:20;;;;;;;50.27;22.40;;;5.50;3.50;;;;;;6240213;23;20365;-56
2022/01/10 12:28:49;;;;;;;46.30;22.13;;;5.40;1.00;;;;;;6216642;23;20386;-52
2022/01/10 12:31:16;;;;;;;50.00;22.40;;;5.50;20.30;;;;;;6245088;23;20682;-53
2022/01/10 12:33:42;;;;;;;45.00;22.70;;;5.50;46.60;;;;;;6244874;23;20381;-54
2022/01/10 12:36:07;;;;;;;45.90;23.73;;;5.60;53.00;;;;;;6218199;23;20400;-53
2022/01/10 12:38:33;;;;;;;46.80;24.40;;;5.60;1.00;;;;;;6245337;23;20149;-52
2022/01/10 12:40:58;;;;;;;46.87;23.50;;;5.60;1.00;;;;;;6217706;23;20165;-53
2022/01/10 12:43:24;;;;;;;51.43;25.90;;;5.70;1.00;;;;;;6244996;23;20198;-53
2022/01/10 12:45:50;;;;;;;50.20;23.97;;;5.70;1.00;;;;;;6245099;23;20192;-53
2022/01/10 12:48:16;;;;;;;52.53;26.37;;;5.70;1.00;;;;;;6244982;23;20228;-53
2022/01/10 12:50:46;;;;;;;53.60;25.20;;;5.60;1.00;;;;;;6245181;23;20515;-53